<?xml version="1.0" encoding="UTF-8" ?>
<gpx version="1.1" xmlns:xsi="http://www.w3.org/2001/XMLSchema-instance" 
    xmlns="http://www.topografix.com/GPX/1/1" 
    xsi:schemaLocation="http://www.topografix.com/GPX/1/1 http://www.topografix.com/GPX/1/1/gpx.xsd" 
    creator="Openrunner - https://www.openrunner.com" >
				<wpt lat="48.219817" lon="6.340819">
				 	<ele>0</ele>
				 	<name><![CDATA[Ravitaillement]]></name>
				 	<desc><![CDATA[]]></desc>
					<sym>3</sym>
				</wpt>
			
				<wpt lat="48.197888" lon="6.411875">
				 	<ele>0</ele>
				 	<name><![CDATA[Danger]]></name>
				 	<desc><![CDATA[]]></desc>
					<sym>14</sym>
				</wpt>
			
				<wpt lat="48.198139" lon="6.411254">
				 	<ele>0</ele>
				 	<name><![CDATA[Danger]]></name>
				 	<desc><![CDATA[]]></desc>
					<sym>14</sym>
				</wpt>
			
				<wpt lat="48.177751" lon="6.462077">
				 	<ele>0</ele>
				 	<name><![CDATA[Danger]]></name>
				 	<desc><![CDATA[]]></desc>
					<sym>14</sym>
				</wpt>
			
				<wpt lat="48.201720" lon="6.385740">
				 	<ele>0</ele>
				 	<name><![CDATA[Danger]]></name>
				 	<desc><![CDATA[]]></desc>
					<sym>14</sym>
				</wpt>
			
				<wpt lat="48.199100" lon="6.376320">
				 	<ele>0</ele>
				 	<name><![CDATA[Descente dangereuse]]></name>
				 	<desc><![CDATA[]]></desc>
					<sym>15</sym>
				</wpt>
			
				<wpt lat="48.194678" lon="6.368248">
				 	<ele>0</ele>
				 	<name><![CDATA[Danger]]></name>
				 	<desc><![CDATA[]]></desc>
					<sym>14</sym>
				</wpt>
			
				<wpt lat="48.216347" lon="6.373910">
				 	<ele>0</ele>
				 	<name><![CDATA[Descente dangereuse]]></name>
				 	<desc><![CDATA[]]></desc>
					<sym>15</sym>
				</wpt>
			
				<wpt lat="48.190781" lon="6.427710">
				 	<ele>0</ele>
				 	<name><![CDATA[Danger]]></name>
				 	<desc><![CDATA[]]></desc>
					<sym>14</sym>
				</wpt>
			
				<wpt lat="48.190858" lon="6.427549">
				 	<ele>0</ele>
				 	<name><![CDATA[Danger]]></name>
				 	<desc><![CDATA[]]></desc>
					<sym>14</sym>
				</wpt>
			
				<wpt lat="48.213486" lon="6.380168">
				 	<ele>0</ele>
				 	<name><![CDATA[Danger]]></name>
				 	<desc><![CDATA[]]></desc>
					<sym>14</sym>
				</wpt>
			
				<wpt lat="48.190710" lon="6.427710">
				 	<ele>0</ele>
				 	<name><![CDATA[Danger]]></name>
				 	<desc><![CDATA[]]></desc>
					<sym>14</sym>
				</wpt>
			
				<wpt lat="48.190930" lon="6.427670">
				 	<ele>0</ele>
				 	<name><![CDATA[Danger]]></name>
				 	<desc><![CDATA[]]></desc>
					<sym>14</sym>
				</wpt>
				<trk>
						<name>Terroirs 2025 - Famille-20501556</name>
						<trkseg>
					<trkpt lat="48.177320" lon="6.462810">
						<ele>372</ele>
						<time>2025-03-24T17:46:57Z</time>
					</trkpt>
					<trkpt lat="48.177710" lon="6.462170">
						<ele>375</ele>
						<time>2025-03-24T17:47:07Z</time>
					</trkpt>
					<trkpt lat="48.177860" lon="6.461630">
						<ele>375</ele>
						<time>2025-03-24T17:47:14Z</time>
					</trkpt>
					<trkpt lat="48.177880" lon="6.461380">
						<ele>372</ele>
						<time>2025-03-24T17:47:17Z</time>
					</trkpt>
					<trkpt lat="48.177620" lon="6.459770">
						<ele>361</ele>
						<time>2025-03-24T17:47:37Z</time>
					</trkpt>
					<trkpt lat="48.177420" lon="6.458950">
						<ele>355</ele>
						<time>2025-03-24T17:47:47Z</time>
					</trkpt>
					<trkpt lat="48.177260" lon="6.457690">
						<ele>350</ele>
						<time>2025-03-24T17:48:02Z</time>
					</trkpt>
					<trkpt lat="48.177280" lon="6.457410">
						<ele>348</ele>
						<time>2025-03-24T17:48:06Z</time>
					</trkpt>
					<trkpt lat="48.177350" lon="6.457390">
						<ele>346</ele>
						<time>2025-03-24T17:48:07Z</time>
					</trkpt>
					<trkpt lat="48.177420" lon="6.457340">
						<ele>344</ele>
						<time>2025-03-24T17:48:08Z</time>
					</trkpt>
					<trkpt lat="48.177520" lon="6.457260">
						<ele>342</ele>
						<time>2025-03-24T17:48:10Z</time>
					</trkpt>
					<trkpt lat="48.177630" lon="6.457130">
						<ele>343</ele>
						<time>2025-03-24T17:48:13Z</time>
					</trkpt>
					<trkpt lat="48.177570" lon="6.456920">
						<ele>342</ele>
						<time>2025-03-24T17:48:16Z</time>
					</trkpt>
					<trkpt lat="48.177410" lon="6.456530">
						<ele>343</ele>
						<time>2025-03-24T17:48:21Z</time>
					</trkpt>
					<trkpt lat="48.177340" lon="6.456270">
						<ele>345</ele>
						<time>2025-03-24T17:48:24Z</time>
					</trkpt>
					<trkpt lat="48.177090" lon="6.455610">
						<ele>346</ele>
						<time>2025-03-24T17:48:33Z</time>
					</trkpt>
					<trkpt lat="48.176810" lon="6.455110">
						<ele>341</ele>
						<time>2025-03-24T17:48:41Z</time>
					</trkpt>
					<trkpt lat="48.176550" lon="6.454530">
						<ele>339</ele>
						<time>2025-03-24T17:48:49Z</time>
					</trkpt>
					<trkpt lat="48.176510" lon="6.454400">
						<ele>339</ele>
						<time>2025-03-24T17:48:51Z</time>
					</trkpt>
					<trkpt lat="48.176310" lon="6.454000">
						<ele>338</ele>
						<time>2025-03-24T17:48:57Z</time>
					</trkpt>
					<trkpt lat="48.175890" lon="6.453350">
						<ele>332</ele>
						<time>2025-03-24T17:49:08Z</time>
					</trkpt>
					<trkpt lat="48.175800" lon="6.453160">
						<ele>331</ele>
						<time>2025-03-24T17:49:11Z</time>
					</trkpt>
					<trkpt lat="48.175790" lon="6.453000">
						<ele>331</ele>
						<time>2025-03-24T17:49:13Z</time>
					</trkpt>
					<trkpt lat="48.175810" lon="6.452970">
						<ele>331</ele>
						<time>2025-03-24T17:49:13Z</time>
					</trkpt>
					<trkpt lat="48.175840" lon="6.452890">
						<ele>331</ele>
						<time>2025-03-24T17:49:14Z</time>
					</trkpt>
					<trkpt lat="48.175790" lon="6.452780">
						<ele>330</ele>
						<time>2025-03-24T17:49:16Z</time>
					</trkpt>
					<trkpt lat="48.175800" lon="6.452600">
						<ele>330</ele>
						<time>2025-03-24T17:49:18Z</time>
					</trkpt>
					<trkpt lat="48.176080" lon="6.451570">
						<ele>329</ele>
						<time>2025-03-24T17:49:31Z</time>
					</trkpt>
					<trkpt lat="48.176150" lon="6.451390">
						<ele>329</ele>
						<time>2025-03-24T17:49:33Z</time>
					</trkpt>
					<trkpt lat="48.176320" lon="6.451250">
						<ele>330</ele>
						<time>2025-03-24T17:49:37Z</time>
					</trkpt>
					<trkpt lat="48.176420" lon="6.451100">
						<ele>329</ele>
						<time>2025-03-24T17:49:39Z</time>
					</trkpt>
					<trkpt lat="48.176590" lon="6.451010">
						<ele>329</ele>
						<time>2025-03-24T17:49:43Z</time>
					</trkpt>
					<trkpt lat="48.176650" lon="6.450980">
						<ele>328</ele>
						<time>2025-03-24T17:49:44Z</time>
					</trkpt>
					<trkpt lat="48.176750" lon="6.450930">
						<ele>329</ele>
						<time>2025-03-24T17:49:46Z</time>
					</trkpt>
					<trkpt lat="48.177030" lon="6.450810">
						<ele>330</ele>
						<time>2025-03-24T17:49:51Z</time>
					</trkpt>
					<trkpt lat="48.177570" lon="6.450650">
						<ele>334</ele>
						<time>2025-03-24T17:50:01Z</time>
					</trkpt>
					<trkpt lat="48.177990" lon="6.450450">
						<ele>334</ele>
						<time>2025-03-24T17:50:08Z</time>
					</trkpt>
					<trkpt lat="48.178140" lon="6.450260">
						<ele>331</ele>
						<time>2025-03-24T17:50:12Z</time>
					</trkpt>
					<trkpt lat="48.178310" lon="6.450180">
						<ele>330</ele>
						<time>2025-03-24T17:50:15Z</time>
					</trkpt>
					<trkpt lat="48.179020" lon="6.449640">
						<ele>331</ele>
						<time>2025-03-24T17:50:29Z</time>
					</trkpt>
					<trkpt lat="48.179210" lon="6.449470">
						<ele>330</ele>
						<time>2025-03-24T17:50:33Z</time>
					</trkpt>
					<trkpt lat="48.180350" lon="6.448090">
						<ele>323</ele>
						<time>2025-03-24T17:50:59Z</time>
					</trkpt>
					<trkpt lat="48.180740" lon="6.447710">
						<ele>324</ele>
						<time>2025-03-24T17:51:08Z</time>
					</trkpt>
					<trkpt lat="48.181790" lon="6.446890">
						<ele>324</ele>
						<time>2025-03-24T17:51:29Z</time>
					</trkpt>
					<trkpt lat="48.182430" lon="6.446420">
						<ele>322</ele>
						<time>2025-03-24T17:51:41Z</time>
					</trkpt>
					<trkpt lat="48.182860" lon="6.446160">
						<ele>322</ele>
						<time>2025-03-24T17:51:50Z</time>
					</trkpt>
					<trkpt lat="48.184000" lon="6.445820">
						<ele>320</ele>
						<time>2025-03-24T17:52:10Z</time>
					</trkpt>
					<trkpt lat="48.184080" lon="6.445710">
						<ele>320</ele>
						<time>2025-03-24T17:52:12Z</time>
					</trkpt>
					<trkpt lat="48.184340" lon="6.445560">
						<ele>320</ele>
						<time>2025-03-24T17:52:17Z</time>
					</trkpt>
					<trkpt lat="48.184380" lon="6.445480">
						<ele>320</ele>
						<time>2025-03-24T17:52:18Z</time>
					</trkpt>
					<trkpt lat="48.184400" lon="6.445220">
						<ele>319</ele>
						<time>2025-03-24T17:52:21Z</time>
					</trkpt>
					<trkpt lat="48.184320" lon="6.444660">
						<ele>319</ele>
						<time>2025-03-24T17:52:28Z</time>
					</trkpt>
					<trkpt lat="48.184300" lon="6.444600">
						<ele>319</ele>
						<time>2025-03-24T17:52:29Z</time>
					</trkpt>
					<trkpt lat="48.183400" lon="6.442640">
						<ele>319</ele>
						<time>2025-03-24T17:52:57Z</time>
					</trkpt>
					<trkpt lat="48.183220" lon="6.442320">
						<ele>320</ele>
						<time>2025-03-24T17:53:02Z</time>
					</trkpt>
					<trkpt lat="48.183180" lon="6.442300">
						<ele>321</ele>
						<time>2025-03-24T17:53:03Z</time>
					</trkpt>
					<trkpt lat="48.183160" lon="6.442190">
						<ele>321</ele>
						<time>2025-03-24T17:53:04Z</time>
					</trkpt>
					<trkpt lat="48.183480" lon="6.441810">
						<ele>323</ele>
						<time>2025-03-24T17:53:12Z</time>
					</trkpt>
					<trkpt lat="48.183780" lon="6.441610">
						<ele>325</ele>
						<time>2025-03-24T17:53:17Z</time>
					</trkpt>
					<trkpt lat="48.183850" lon="6.441460">
						<ele>326</ele>
						<time>2025-03-24T17:53:20Z</time>
					</trkpt>
					<trkpt lat="48.183950" lon="6.441420">
						<ele>326</ele>
						<time>2025-03-24T17:53:21Z</time>
					</trkpt>
					<trkpt lat="48.184060" lon="6.441230">
						<ele>328</ele>
						<time>2025-03-24T17:53:24Z</time>
					</trkpt>
					<trkpt lat="48.184190" lon="6.441140">
						<ele>329</ele>
						<time>2025-03-24T17:53:27Z</time>
					</trkpt>
					<trkpt lat="48.184550" lon="6.440780">
						<ele>331</ele>
						<time>2025-03-24T17:53:35Z</time>
					</trkpt>
					<trkpt lat="48.184770" lon="6.440650">
						<ele>331</ele>
						<time>2025-03-24T17:53:39Z</time>
					</trkpt>
					<trkpt lat="48.185260" lon="6.440430">
						<ele>332</ele>
						<time>2025-03-24T17:53:48Z</time>
					</trkpt>
					<trkpt lat="48.186230" lon="6.439960">
						<ele>335</ele>
						<time>2025-03-24T17:54:06Z</time>
					</trkpt>
					<trkpt lat="48.188350" lon="6.438290">
						<ele>335</ele>
						<time>2025-03-24T17:54:49Z</time>
					</trkpt>
					<trkpt lat="48.188310" lon="6.437840">
						<ele>336</ele>
						<time>2025-03-24T17:54:54Z</time>
					</trkpt>
					<trkpt lat="48.188310" lon="6.437600">
						<ele>337</ele>
						<time>2025-03-24T17:54:57Z</time>
					</trkpt>
					<trkpt lat="48.188350" lon="6.437300">
						<ele>337</ele>
						<time>2025-03-24T17:55:01Z</time>
					</trkpt>
					<trkpt lat="48.188420" lon="6.437130">
						<ele>337</ele>
						<time>2025-03-24T17:55:03Z</time>
					</trkpt>
					<trkpt lat="48.188420" lon="6.436810">
						<ele>337</ele>
						<time>2025-03-24T17:55:07Z</time>
					</trkpt>
					<trkpt lat="48.188500" lon="6.436190">
						<ele>335</ele>
						<time>2025-03-24T17:55:14Z</time>
					</trkpt>
					<trkpt lat="48.188520" lon="6.435820">
						<ele>334</ele>
						<time>2025-03-24T17:55:19Z</time>
					</trkpt>
					<trkpt lat="48.188480" lon="6.435350">
						<ele>332</ele>
						<time>2025-03-24T17:55:24Z</time>
					</trkpt>
					<trkpt lat="48.188200" lon="6.434250">
						<ele>331</ele>
						<time>2025-03-24T17:55:38Z</time>
					</trkpt>
					<trkpt lat="48.188160" lon="6.434020">
						<ele>331</ele>
						<time>2025-03-24T17:55:41Z</time>
					</trkpt>
					<trkpt lat="48.188180" lon="6.433870">
						<ele>331</ele>
						<time>2025-03-24T17:55:43Z</time>
					</trkpt>
					<trkpt lat="48.188310" lon="6.433480">
						<ele>330</ele>
						<time>2025-03-24T17:55:48Z</time>
					</trkpt>
					<trkpt lat="48.188330" lon="6.433460">
						<ele>330</ele>
						<time>2025-03-24T17:55:48Z</time>
					</trkpt>
					<trkpt lat="48.188440" lon="6.433180">
						<ele>331</ele>
						<time>2025-03-24T17:55:52Z</time>
					</trkpt>
					<trkpt lat="48.188590" lon="6.432710">
						<ele>332</ele>
						<time>2025-03-24T17:55:59Z</time>
					</trkpt>
					<trkpt lat="48.188740" lon="6.432110">
						<ele>334</ele>
						<time>2025-03-24T17:56:06Z</time>
					</trkpt>
					<trkpt lat="48.189000" lon="6.430690">
						<ele>340</ele>
						<time>2025-03-24T17:56:24Z</time>
					</trkpt>
					<trkpt lat="48.189430" lon="6.429880">
						<ele>343</ele>
						<time>2025-03-24T17:56:36Z</time>
					</trkpt>
					<trkpt lat="48.189640" lon="6.429560">
						<ele>343</ele>
						<time>2025-03-24T17:56:41Z</time>
					</trkpt>
					<trkpt lat="48.189730" lon="6.429380">
						<ele>344</ele>
						<time>2025-03-24T17:56:44Z</time>
					</trkpt>
					<trkpt lat="48.189700" lon="6.429360">
						<ele>344</ele>
						<time>2025-03-24T17:56:44Z</time>
					</trkpt>
					<trkpt lat="48.189700" lon="6.429260">
						<ele>344</ele>
						<time>2025-03-24T17:56:46Z</time>
					</trkpt>
					<trkpt lat="48.189750" lon="6.429210">
						<ele>344</ele>
						<time>2025-03-24T17:56:47Z</time>
					</trkpt>
					<trkpt lat="48.189810" lon="6.429230">
						<ele>344</ele>
						<time>2025-03-24T17:56:48Z</time>
					</trkpt>
					<trkpt lat="48.190130" lon="6.428740">
						<ele>345</ele>
						<time>2025-03-24T17:56:56Z</time>
					</trkpt>
					<trkpt lat="48.190540" lon="6.427840">
						<ele>346</ele>
						<time>2025-03-24T17:57:09Z</time>
					</trkpt>
					<trkpt lat="48.190650" lon="6.427770">
						<ele>346</ele>
						<time>2025-03-24T17:57:11Z</time>
					</trkpt>
					<trkpt lat="48.190650" lon="6.427620">
						<ele>346</ele>
						<time>2025-03-24T17:57:13Z</time>
					</trkpt>
					<trkpt lat="48.190730" lon="6.427500">
						<ele>346</ele>
						<time>2025-03-24T17:57:15Z</time>
					</trkpt>
					<trkpt lat="48.190840" lon="6.427520">
						<ele>346</ele>
						<time>2025-03-24T17:57:17Z</time>
					</trkpt>
					<trkpt lat="48.190880" lon="6.427430">
						<ele>346</ele>
						<time>2025-03-24T17:57:18Z</time>
					</trkpt>
					<trkpt lat="48.191030" lon="6.426850">
						<ele>345</ele>
						<time>2025-03-24T17:57:25Z</time>
					</trkpt>
					<trkpt lat="48.191160" lon="6.426700">
						<ele>345</ele>
						<time>2025-03-24T17:57:28Z</time>
					</trkpt>
					<trkpt lat="48.191210" lon="6.426530">
						<ele>345</ele>
						<time>2025-03-24T17:57:31Z</time>
					</trkpt>
					<trkpt lat="48.192620" lon="6.424320">
						<ele>346</ele>
						<time>2025-03-24T17:58:07Z</time>
					</trkpt>
					<trkpt lat="48.193050" lon="6.423440">
						<ele>351</ele>
						<time>2025-03-24T17:58:20Z</time>
					</trkpt>
					<trkpt lat="48.193350" lon="6.422600">
						<ele>353</ele>
						<time>2025-03-24T17:58:31Z</time>
					</trkpt>
					<trkpt lat="48.193310" lon="6.422520">
						<ele>353</ele>
						<time>2025-03-24T17:58:32Z</time>
					</trkpt>
					<trkpt lat="48.193330" lon="6.422320">
						<ele>353</ele>
						<time>2025-03-24T17:58:35Z</time>
					</trkpt>
					<trkpt lat="48.193400" lon="6.422260">
						<ele>352</ele>
						<time>2025-03-24T17:58:36Z</time>
					</trkpt>
					<trkpt lat="48.193420" lon="6.422260">
						<ele>352</ele>
						<time>2025-03-24T17:58:36Z</time>
					</trkpt>
					<trkpt lat="48.193590" lon="6.421980">
						<ele>351</ele>
						<time>2025-03-24T17:58:41Z</time>
					</trkpt>
					<trkpt lat="48.194450" lon="6.419060">
						<ele>343</ele>
						<time>2025-03-24T17:59:19Z</time>
					</trkpt>
					<trkpt lat="48.194530" lon="6.418850">
						<ele>344</ele>
						<time>2025-03-24T17:59:22Z</time>
					</trkpt>
					<trkpt lat="48.194660" lon="6.418590">
						<ele>345</ele>
						<time>2025-03-24T17:59:26Z</time>
					</trkpt>
					<trkpt lat="48.194900" lon="6.418290">
						<ele>347</ele>
						<time>2025-03-24T17:59:31Z</time>
					</trkpt>
					<trkpt lat="48.195430" lon="6.417750">
						<ele>350</ele>
						<time>2025-03-24T17:59:42Z</time>
					</trkpt>
					<trkpt lat="48.195690" lon="6.417320">
						<ele>352</ele>
						<time>2025-03-24T17:59:49Z</time>
					</trkpt>
					<trkpt lat="48.195820" lon="6.416980">
						<ele>354</ele>
						<time>2025-03-24T17:59:54Z</time>
					</trkpt>
					<trkpt lat="48.195760" lon="6.416830">
						<ele>355</ele>
						<time>2025-03-24T17:59:56Z</time>
					</trkpt>
					<trkpt lat="48.195820" lon="6.416660">
						<ele>356</ele>
						<time>2025-03-24T17:59:58Z</time>
					</trkpt>
					<trkpt lat="48.195950" lon="6.416640">
						<ele>356</ele>
						<time>2025-03-24T18:00:01Z</time>
					</trkpt>
					<trkpt lat="48.196100" lon="6.416190">
						<ele>356</ele>
						<time>2025-03-24T18:00:07Z</time>
					</trkpt>
					<trkpt lat="48.196270" lon="6.415820">
						<ele>355</ele>
						<time>2025-03-24T18:00:12Z</time>
					</trkpt>
					<trkpt lat="48.196790" lon="6.415050">
						<ele>353</ele>
						<time>2025-03-24T18:00:25Z</time>
					</trkpt>
					<trkpt lat="48.196980" lon="6.414730">
						<ele>352</ele>
						<time>2025-03-24T18:00:30Z</time>
					</trkpt>
					<trkpt lat="48.197170" lon="6.414260">
						<ele>351</ele>
						<time>2025-03-24T18:00:37Z</time>
					</trkpt>
					<trkpt lat="48.197390" lon="6.413530">
						<ele>354</ele>
						<time>2025-03-24T18:00:46Z</time>
					</trkpt>
					<trkpt lat="48.197450" lon="6.413120">
						<ele>356</ele>
						<time>2025-03-24T18:00:51Z</time>
					</trkpt>
					<trkpt lat="48.197470" lon="6.412670">
						<ele>358</ele>
						<time>2025-03-24T18:00:56Z</time>
					</trkpt>
					<trkpt lat="48.197410" lon="6.412130">
						<ele>361</ele>
						<time>2025-03-24T18:01:03Z</time>
					</trkpt>
					<trkpt lat="48.197540" lon="6.411550">
						<ele>366</ele>
						<time>2025-03-24T18:01:10Z</time>
					</trkpt>
					<trkpt lat="48.197520" lon="6.411470">
						<ele>366</ele>
						<time>2025-03-24T18:01:11Z</time>
					</trkpt>
					<trkpt lat="48.197540" lon="6.411290">
						<ele>368</ele>
						<time>2025-03-24T18:01:13Z</time>
					</trkpt>
					<trkpt lat="48.197670" lon="6.411140">
						<ele>368</ele>
						<time>2025-03-24T18:01:16Z</time>
					</trkpt>
					<trkpt lat="48.197820" lon="6.411170">
						<ele>366</ele>
						<time>2025-03-24T18:01:19Z</time>
					</trkpt>
					<trkpt lat="48.198030" lon="6.411020">
						<ele>366</ele>
						<time>2025-03-24T18:01:23Z</time>
					</trkpt>
					<trkpt lat="48.198540" lon="6.410500">
						<ele>367</ele>
						<time>2025-03-24T18:01:34Z</time>
					</trkpt>
					<trkpt lat="48.200180" lon="6.407930">
						<ele>376</ele>
						<time>2025-03-24T18:02:16Z</time>
					</trkpt>
					<trkpt lat="48.200910" lon="6.406900">
						<ele>375</ele>
						<time>2025-03-24T18:02:34Z</time>
					</trkpt>
					<trkpt lat="48.201460" lon="6.406530">
						<ele>371</ele>
						<time>2025-03-24T18:02:45Z</time>
					</trkpt>
					<trkpt lat="48.201460" lon="6.406360">
						<ele>371</ele>
						<time>2025-03-24T18:02:47Z</time>
					</trkpt>
					<trkpt lat="48.201530" lon="6.405890">
						<ele>372</ele>
						<time>2025-03-24T18:02:53Z</time>
					</trkpt>
					<trkpt lat="48.202260" lon="6.403460">
						<ele>376</ele>
						<time>2025-03-24T18:03:24Z</time>
					</trkpt>
					<trkpt lat="48.202820" lon="6.401060">
						<ele>374</ele>
						<time>2025-03-24T18:03:54Z</time>
					</trkpt>
					<trkpt lat="48.202900" lon="6.400480">
						<ele>376</ele>
						<time>2025-03-24T18:04:01Z</time>
					</trkpt>
					<trkpt lat="48.202900" lon="6.399770">
						<ele>380</ele>
						<time>2025-03-24T18:04:10Z</time>
					</trkpt>
					<trkpt lat="48.202880" lon="6.398230">
						<ele>385</ele>
						<time>2025-03-24T18:04:28Z</time>
					</trkpt>
					<trkpt lat="48.202880" lon="6.395820">
						<ele>383</ele>
						<time>2025-03-24T18:04:57Z</time>
					</trkpt>
					<trkpt lat="48.202820" lon="6.392130">
						<ele>371</ele>
						<time>2025-03-24T18:05:40Z</time>
					</trkpt>
					<trkpt lat="48.202790" lon="6.392030">
						<ele>371</ele>
						<time>2025-03-24T18:05:42Z</time>
					</trkpt>
					<trkpt lat="48.202710" lon="6.390910">
						<ele>368</ele>
						<time>2025-03-24T18:05:55Z</time>
					</trkpt>
					<trkpt lat="48.202430" lon="6.387990">
						<ele>368</ele>
						<time>2025-03-24T18:06:30Z</time>
					</trkpt>
					<trkpt lat="48.202340" lon="6.387160">
						<ele>368</ele>
						<time>2025-03-24T18:06:40Z</time>
					</trkpt>
					<trkpt lat="48.202280" lon="6.386790">
						<ele>368</ele>
						<time>2025-03-24T18:06:45Z</time>
					</trkpt>
					<trkpt lat="48.202060" lon="6.386280">
						<ele>367</ele>
						<time>2025-03-24T18:06:52Z</time>
					</trkpt>
					<trkpt lat="48.201890" lon="6.385930">
						<ele>367</ele>
						<time>2025-03-24T18:06:57Z</time>
					</trkpt>
					<trkpt lat="48.201720" lon="6.385740">
						<ele>367</ele>
						<time>2025-03-24T18:07:01Z</time>
					</trkpt>
					<trkpt lat="48.200930" lon="6.385120">
						<ele>368</ele>
						<time>2025-03-24T18:07:16Z</time>
					</trkpt>
					<trkpt lat="48.200760" lon="6.384920">
						<ele>368</ele>
						<time>2025-03-24T18:07:20Z</time>
					</trkpt>
					<trkpt lat="48.200670" lon="6.384520">
						<ele>368</ele>
						<time>2025-03-24T18:07:25Z</time>
					</trkpt>
					<trkpt lat="48.200650" lon="6.383760">
						<ele>368</ele>
						<time>2025-03-24T18:07:34Z</time>
					</trkpt>
					<trkpt lat="48.200670" lon="6.383490">
						<ele>368</ele>
						<time>2025-03-24T18:07:38Z</time>
					</trkpt>
					<trkpt lat="48.200730" lon="6.383210">
						<ele>368</ele>
						<time>2025-03-24T18:07:41Z</time>
					</trkpt>
					<trkpt lat="48.200930" lon="6.382760">
						<ele>366</ele>
						<time>2025-03-24T18:07:47Z</time>
					</trkpt>
					<trkpt lat="48.200950" lon="6.382500">
						<ele>365</ele>
						<time>2025-03-24T18:07:51Z</time>
					</trkpt>
					<trkpt lat="48.200880" lon="6.382310">
						<ele>364</ele>
						<time>2025-03-24T18:07:53Z</time>
					</trkpt>
					<trkpt lat="48.200500" lon="6.382030">
						<ele>363</ele>
						<time>2025-03-24T18:08:01Z</time>
					</trkpt>
					<trkpt lat="48.200150" lon="6.381960">
						<ele>362</ele>
						<time>2025-03-24T18:08:07Z</time>
					</trkpt>
					<trkpt lat="48.199510" lon="6.381940">
						<ele>361</ele>
						<time>2025-03-24T18:08:18Z</time>
					</trkpt>
					<trkpt lat="48.199300" lon="6.381830">
						<ele>360</ele>
						<time>2025-03-24T18:08:22Z</time>
					</trkpt>
					<trkpt lat="48.198740" lon="6.381280">
						<ele>360</ele>
						<time>2025-03-24T18:08:34Z</time>
					</trkpt>
					<trkpt lat="48.198220" lon="6.380590">
						<ele>359</ele>
						<time>2025-03-24T18:08:47Z</time>
					</trkpt>
					<trkpt lat="48.197750" lon="6.379410">
						<ele>356</ele>
						<time>2025-03-24T18:09:03Z</time>
					</trkpt>
					<trkpt lat="48.197990" lon="6.378770">
						<ele>354</ele>
						<time>2025-03-24T18:09:12Z</time>
					</trkpt>
					<trkpt lat="48.198120" lon="6.378550">
						<ele>353</ele>
						<time>2025-03-24T18:09:15Z</time>
					</trkpt>
					<trkpt lat="48.198670" lon="6.377860">
						<ele>351</ele>
						<time>2025-03-24T18:09:28Z</time>
					</trkpt>
					<trkpt lat="48.199080" lon="6.376620">
						<ele>344</ele>
						<time>2025-03-24T18:09:44Z</time>
					</trkpt>
					<trkpt lat="48.199100" lon="6.376320">
						<ele>342</ele>
						<time>2025-03-24T18:09:48Z</time>
					</trkpt>
					<trkpt lat="48.199020" lon="6.376000">
						<ele>340</ele>
						<time>2025-03-24T18:09:52Z</time>
					</trkpt>
					<trkpt lat="48.199000" lon="6.375630">
						<ele>337</ele>
						<time>2025-03-24T18:09:56Z</time>
					</trkpt>
					<trkpt lat="48.199020" lon="6.375440">
						<ele>336</ele>
						<time>2025-03-24T18:09:59Z</time>
					</trkpt>
					<trkpt lat="48.198950" lon="6.375290">
						<ele>335</ele>
						<time>2025-03-24T18:10:01Z</time>
					</trkpt>
					<trkpt lat="48.198910" lon="6.374880">
						<ele>333</ele>
						<time>2025-03-24T18:10:06Z</time>
					</trkpt>
					<trkpt lat="48.198650" lon="6.373270">
						<ele>334</ele>
						<time>2025-03-24T18:10:25Z</time>
					</trkpt>
					<trkpt lat="48.198700" lon="6.372890">
						<ele>336</ele>
						<time>2025-03-24T18:10:30Z</time>
					</trkpt>
					<trkpt lat="48.198670" lon="6.372610">
						<ele>337</ele>
						<time>2025-03-24T18:10:33Z</time>
					</trkpt>
					<trkpt lat="48.198390" lon="6.371920">
						<ele>340</ele>
						<time>2025-03-24T18:10:43Z</time>
					</trkpt>
					<trkpt lat="48.197920" lon="6.371320">
						<ele>341</ele>
						<time>2025-03-24T18:10:54Z</time>
					</trkpt>
					<trkpt lat="48.197580" lon="6.371130">
						<ele>340</ele>
						<time>2025-03-24T18:11:00Z</time>
					</trkpt>
					<trkpt lat="48.197280" lon="6.370800">
						<ele>340</ele>
						<time>2025-03-24T18:11:07Z</time>
					</trkpt>
					<trkpt lat="48.197040" lon="6.370380">
						<ele>339</ele>
						<time>2025-03-24T18:11:13Z</time>
					</trkpt>
					<trkpt lat="48.196700" lon="6.369820">
						<ele>337</ele>
						<time>2025-03-24T18:11:22Z</time>
					</trkpt>
					<trkpt lat="48.196510" lon="6.369560">
						<ele>336</ele>
						<time>2025-03-24T18:11:27Z</time>
					</trkpt>
					<trkpt lat="48.196330" lon="6.369450">
						<ele>335</ele>
						<time>2025-03-24T18:11:30Z</time>
					</trkpt>
					<trkpt lat="48.196140" lon="6.369470">
						<ele>334</ele>
						<time>2025-03-24T18:11:34Z</time>
					</trkpt>
					<trkpt lat="48.195880" lon="6.369690">
						<ele>333</ele>
						<time>2025-03-24T18:11:39Z</time>
					</trkpt>
					<trkpt lat="48.195670" lon="6.369920">
						<ele>333</ele>
						<time>2025-03-24T18:11:44Z</time>
					</trkpt>
					<trkpt lat="48.195460" lon="6.369730">
						<ele>332</ele>
						<time>2025-03-24T18:11:48Z</time>
					</trkpt>
					<trkpt lat="48.195240" lon="6.369390">
						<ele>332</ele>
						<time>2025-03-24T18:11:54Z</time>
					</trkpt>
					<trkpt lat="48.194640" lon="6.368170">
						<ele>335</ele>
						<time>2025-03-24T18:12:12Z</time>
					</trkpt>
					<trkpt lat="48.195280" lon="6.366300">
						<ele>336</ele>
						<time>2025-03-24T18:12:37Z</time>
					</trkpt>
					<trkpt lat="48.195650" lon="6.365330">
						<ele>335</ele>
						<time>2025-03-24T18:12:50Z</time>
					</trkpt>
					<trkpt lat="48.196060" lon="6.364150">
						<ele>336</ele>
						<time>2025-03-24T18:13:06Z</time>
					</trkpt>
					<trkpt lat="48.196310" lon="6.364350">
						<ele>336</ele>
						<time>2025-03-24T18:13:11Z</time>
					</trkpt>
					<trkpt lat="48.196530" lon="6.364470">
						<ele>336</ele>
						<time>2025-03-24T18:13:15Z</time>
					</trkpt>
					<trkpt lat="48.197340" lon="6.363290">
						<ele>340</ele>
						<time>2025-03-24T18:13:35Z</time>
					</trkpt>
					<trkpt lat="48.198160" lon="6.361750">
						<ele>345</ele>
						<time>2025-03-24T18:13:58Z</time>
					</trkpt>
					<trkpt lat="48.198800" lon="6.361020">
						<ele>345</ele>
						<time>2025-03-24T18:14:13Z</time>
					</trkpt>
					<trkpt lat="48.198910" lon="6.360850">
						<ele>345</ele>
						<time>2025-03-24T18:14:16Z</time>
					</trkpt>
					<trkpt lat="48.199020" lon="6.360630">
						<ele>345</ele>
						<time>2025-03-24T18:14:19Z</time>
					</trkpt>
					<trkpt lat="48.199080" lon="6.360380">
						<ele>345</ele>
						<time>2025-03-24T18:14:22Z</time>
					</trkpt>
					<trkpt lat="48.199230" lon="6.359350">
						<ele>343</ele>
						<time>2025-03-24T18:14:34Z</time>
					</trkpt>
					<trkpt lat="48.199340" lon="6.359000">
						<ele>343</ele>
						<time>2025-03-24T18:14:39Z</time>
					</trkpt>
					<trkpt lat="48.199340" lon="6.358920">
						<ele>343</ele>
						<time>2025-03-24T18:14:40Z</time>
					</trkpt>
					<trkpt lat="48.199250" lon="6.358590">
						<ele>343</ele>
						<time>2025-03-24T18:14:44Z</time>
					</trkpt>
					<trkpt lat="48.199250" lon="6.358490">
						<ele>343</ele>
						<time>2025-03-24T18:14:45Z</time>
					</trkpt>
					<trkpt lat="48.199340" lon="6.358100">
						<ele>343</ele>
						<time>2025-03-24T18:14:50Z</time>
					</trkpt>
					<trkpt lat="48.199420" lon="6.357200">
						<ele>343</ele>
						<time>2025-03-24T18:15:01Z</time>
					</trkpt>
					<trkpt lat="48.199420" lon="6.356620">
						<ele>343</ele>
						<time>2025-03-24T18:15:08Z</time>
					</trkpt>
					<trkpt lat="48.199340" lon="6.355270">
						<ele>347</ele>
						<time>2025-03-24T18:15:24Z</time>
					</trkpt>
					<trkpt lat="48.199230" lon="6.354750">
						<ele>349</ele>
						<time>2025-03-24T18:15:30Z</time>
					</trkpt>
					<trkpt lat="48.199170" lon="6.354690">
						<ele>349</ele>
						<time>2025-03-24T18:15:32Z</time>
					</trkpt>
					<trkpt lat="48.199080" lon="6.354690">
						<ele>349</ele>
						<time>2025-03-24T18:15:33Z</time>
					</trkpt>
					<trkpt lat="48.199040" lon="6.354170">
						<ele>351</ele>
						<time>2025-03-24T18:15:40Z</time>
					</trkpt>
					<trkpt lat="48.198800" lon="6.353100">
						<ele>350</ele>
						<time>2025-03-24T18:15:53Z</time>
					</trkpt>
					<trkpt lat="48.198780" lon="6.352820">
						<ele>350</ele>
						<time>2025-03-24T18:15:56Z</time>
					</trkpt>
					<trkpt lat="48.199270" lon="6.352800">
						<ele>350</ele>
						<time>2025-03-24T18:16:05Z</time>
					</trkpt>
					<trkpt lat="48.199960" lon="6.352630">
						<ele>348</ele>
						<time>2025-03-24T18:16:17Z</time>
					</trkpt>
					<trkpt lat="48.200200" lon="6.352500">
						<ele>348</ele>
						<time>2025-03-24T18:16:22Z</time>
					</trkpt>
					<trkpt lat="48.200540" lon="6.352180">
						<ele>346</ele>
						<time>2025-03-24T18:16:29Z</time>
					</trkpt>
					<trkpt lat="48.200760" lon="6.352030">
						<ele>346</ele>
						<time>2025-03-24T18:16:33Z</time>
					</trkpt>
					<trkpt lat="48.200990" lon="6.351920">
						<ele>345</ele>
						<time>2025-03-24T18:16:38Z</time>
					</trkpt>
					<trkpt lat="48.201890" lon="6.351690">
						<ele>344</ele>
						<time>2025-03-24T18:16:54Z</time>
					</trkpt>
					<trkpt lat="48.202510" lon="6.351620">
						<ele>345</ele>
						<time>2025-03-24T18:17:05Z</time>
					</trkpt>
					<trkpt lat="48.203240" lon="6.351620">
						<ele>351</ele>
						<time>2025-03-24T18:17:18Z</time>
					</trkpt>
					<trkpt lat="48.204020" lon="6.351600">
						<ele>359</ele>
						<time>2025-03-24T18:17:32Z</time>
					</trkpt>
					<trkpt lat="48.204250" lon="6.351540">
						<ele>361</ele>
						<time>2025-03-24T18:17:36Z</time>
					</trkpt>
					<trkpt lat="48.204510" lon="6.351360">
						<ele>362</ele>
						<time>2025-03-24T18:17:41Z</time>
					</trkpt>
					<trkpt lat="48.204920" lon="6.350960">
						<ele>365</ele>
						<time>2025-03-24T18:17:50Z</time>
					</trkpt>
					<trkpt lat="48.205150" lon="6.350760">
						<ele>367</ele>
						<time>2025-03-24T18:17:55Z</time>
					</trkpt>
					<trkpt lat="48.206080" lon="6.350460">
						<ele>371</ele>
						<time>2025-03-24T18:18:12Z</time>
					</trkpt>
					<trkpt lat="48.206760" lon="6.350290">
						<ele>374</ele>
						<time>2025-03-24T18:18:24Z</time>
					</trkpt>
					<trkpt lat="48.207410" lon="6.349880">
						<ele>374</ele>
						<time>2025-03-24T18:18:36Z</time>
					</trkpt>
					<trkpt lat="48.208290" lon="6.349260">
						<ele>376</ele>
						<time>2025-03-24T18:18:54Z</time>
					</trkpt>
					<trkpt lat="48.208990" lon="6.348790">
						<ele>376</ele>
						<time>2025-03-24T18:19:07Z</time>
					</trkpt>
					<trkpt lat="48.209170" lon="6.348550">
						<ele>376</ele>
						<time>2025-03-24T18:19:12Z</time>
					</trkpt>
					<trkpt lat="48.209360" lon="6.348170">
						<ele>375</ele>
						<time>2025-03-24T18:19:17Z</time>
					</trkpt>
					<trkpt lat="48.209510" lon="6.347720">
						<ele>375</ele>
						<time>2025-03-24T18:19:23Z</time>
					</trkpt>
					<trkpt lat="48.209790" lon="6.347330">
						<ele>374</ele>
						<time>2025-03-24T18:19:30Z</time>
					</trkpt>
					<trkpt lat="48.211590" lon="6.346900">
						<ele>370</ele>
						<time>2025-03-24T18:20:02Z</time>
					</trkpt>
					<trkpt lat="48.212300" lon="6.346640">
						<ele>368</ele>
						<time>2025-03-24T18:20:15Z</time>
					</trkpt>
					<trkpt lat="48.213930" lon="6.345570">
						<ele>358</ele>
						<time>2025-03-24T18:20:47Z</time>
					</trkpt>
					<trkpt lat="48.214790" lon="6.344880">
						<ele>356</ele>
						<time>2025-03-24T18:21:04Z</time>
					</trkpt>
					<trkpt lat="48.215710" lon="6.343900">
						<ele>352</ele>
						<time>2025-03-24T18:21:24Z</time>
					</trkpt>
					<trkpt lat="48.215930" lon="6.343750">
						<ele>352</ele>
						<time>2025-03-24T18:21:29Z</time>
					</trkpt>
					<trkpt lat="48.216440" lon="6.343530">
						<ele>352</ele>
						<time>2025-03-24T18:21:38Z</time>
					</trkpt>
					<trkpt lat="48.217300" lon="6.342540">
						<ele>357</ele>
						<time>2025-03-24T18:21:57Z</time>
					</trkpt>
					<trkpt lat="48.218110" lon="6.341430">
						<ele>355</ele>
						<time>2025-03-24T18:22:17Z</time>
					</trkpt>
					<trkpt lat="48.218610" lon="6.340550">
						<ele>348</ele>
						<time>2025-03-24T18:22:31Z</time>
					</trkpt>
					<trkpt lat="48.218870" lon="6.340250">
						<ele>345</ele>
						<time>2025-03-24T18:22:37Z</time>
					</trkpt>
					<trkpt lat="48.219130" lon="6.340440">
						<ele>343</ele>
						<time>2025-03-24T18:22:42Z</time>
					</trkpt>
					<trkpt lat="48.219330" lon="6.340660">
						<ele>343</ele>
						<time>2025-03-24T18:22:46Z</time>
					</trkpt>
					<trkpt lat="48.219710" lon="6.340790">
						<ele>340</ele>
						<time>2025-03-24T18:22:53Z</time>
					</trkpt>
					<trkpt lat="48.220030" lon="6.340900">
						<ele>338</ele>
						<time>2025-03-24T18:22:59Z</time>
					</trkpt>
					<trkpt lat="48.220120" lon="6.341420">
						<ele>339</ele>
						<time>2025-03-24T18:23:05Z</time>
					</trkpt>
					<trkpt lat="48.220150" lon="6.341840">
						<ele>339</ele>
						<time>2025-03-24T18:23:10Z</time>
					</trkpt>
					<trkpt lat="48.220130" lon="6.342390">
						<ele>339</ele>
						<time>2025-03-24T18:23:17Z</time>
					</trkpt>
					<trkpt lat="48.220020" lon="6.343170">
						<ele>338</ele>
						<time>2025-03-24T18:23:26Z</time>
					</trkpt>
					<trkpt lat="48.219900" lon="6.343900">
						<ele>339</ele>
						<time>2025-03-24T18:23:35Z</time>
					</trkpt>
					<trkpt lat="48.219530" lon="6.344930">
						<ele>342</ele>
						<time>2025-03-24T18:23:49Z</time>
					</trkpt>
					<trkpt lat="48.219320" lon="6.346320">
						<ele>341</ele>
						<time>2025-03-24T18:24:06Z</time>
					</trkpt>
					<trkpt lat="48.219120" lon="6.346860">
						<ele>340</ele>
						<time>2025-03-24T18:24:13Z</time>
					</trkpt>
					<trkpt lat="48.218440" lon="6.348510">
						<ele>344</ele>
						<time>2025-03-24T18:24:36Z</time>
					</trkpt>
					<trkpt lat="48.218290" lon="6.349070">
						<ele>347</ele>
						<time>2025-03-24T18:24:43Z</time>
					</trkpt>
					<trkpt lat="48.218200" lon="6.349560">
						<ele>349</ele>
						<time>2025-03-24T18:24:49Z</time>
					</trkpt>
					<trkpt lat="48.218180" lon="6.350290">
						<ele>353</ele>
						<time>2025-03-24T18:24:58Z</time>
					</trkpt>
					<trkpt lat="48.218370" lon="6.351510">
						<ele>357</ele>
						<time>2025-03-24T18:25:13Z</time>
					</trkpt>
					<trkpt lat="48.218350" lon="6.351840">
						<ele>358</ele>
						<time>2025-03-24T18:25:17Z</time>
					</trkpt>
					<trkpt lat="48.218160" lon="6.353100">
						<ele>363</ele>
						<time>2025-03-24T18:25:32Z</time>
					</trkpt>
					<trkpt lat="48.218140" lon="6.354260">
						<ele>363</ele>
						<time>2025-03-24T18:25:46Z</time>
					</trkpt>
					<trkpt lat="48.217770" lon="6.356190">
						<ele>363</ele>
						<time>2025-03-24T18:26:10Z</time>
					</trkpt>
					<trkpt lat="48.217730" lon="6.356750">
						<ele>363</ele>
						<time>2025-03-24T18:26:16Z</time>
					</trkpt>
					<trkpt lat="48.217770" lon="6.357160">
						<ele>364</ele>
						<time>2025-03-24T18:26:21Z</time>
					</trkpt>
					<trkpt lat="48.217990" lon="6.357740">
						<ele>364</ele>
						<time>2025-03-24T18:26:29Z</time>
					</trkpt>
					<trkpt lat="48.218460" lon="6.359170">
						<ele>362</ele>
						<time>2025-03-24T18:26:48Z</time>
					</trkpt>
					<trkpt lat="48.219120" lon="6.361320">
						<ele>362</ele>
						<time>2025-03-24T18:27:16Z</time>
					</trkpt>
					<trkpt lat="48.219190" lon="6.361660">
						<ele>362</ele>
						<time>2025-03-24T18:27:20Z</time>
					</trkpt>
					<trkpt lat="48.219190" lon="6.361920">
						<ele>362</ele>
						<time>2025-03-24T18:27:24Z</time>
					</trkpt>
					<trkpt lat="48.218950" lon="6.363700">
						<ele>357</ele>
						<time>2025-03-24T18:27:45Z</time>
					</trkpt>
					<trkpt lat="48.218800" lon="6.365290">
						<ele>354</ele>
						<time>2025-03-24T18:28:04Z</time>
					</trkpt>
					<trkpt lat="48.218460" lon="6.367480">
						<ele>356</ele>
						<time>2025-03-24T18:28:31Z</time>
					</trkpt>
					<trkpt lat="48.218010" lon="6.369920">
						<ele>355</ele>
						<time>2025-03-24T18:29:01Z</time>
					</trkpt>
					<trkpt lat="48.217510" lon="6.371810">
						<ele>355</ele>
						<time>2025-03-24T18:29:25Z</time>
					</trkpt>
					<trkpt lat="48.217360" lon="6.372160">
						<ele>354</ele>
						<time>2025-03-24T18:29:30Z</time>
					</trkpt>
					<trkpt lat="48.216330" lon="6.373940">
						<ele>342</ele>
						<time>2025-03-24T18:29:58Z</time>
					</trkpt>
					<trkpt lat="48.215880" lon="6.375520">
						<ele>332</ele>
						<time>2025-03-24T18:30:18Z</time>
					</trkpt>
					<trkpt lat="48.215630" lon="6.376360">
						<ele>331</ele>
						<time>2025-03-24T18:30:29Z</time>
					</trkpt>
					<trkpt lat="48.215390" lon="6.376660">
						<ele>332</ele>
						<time>2025-03-24T18:30:35Z</time>
					</trkpt>
					<trkpt lat="48.215070" lon="6.377370">
						<ele>331</ele>
						<time>2025-03-24T18:30:45Z</time>
					</trkpt>
					<trkpt lat="48.214850" lon="6.377710">
						<ele>332</ele>
						<time>2025-03-24T18:30:50Z</time>
					</trkpt>
					<trkpt lat="48.214360" lon="6.378230">
						<ele>331</ele>
						<time>2025-03-24T18:31:01Z</time>
					</trkpt>
					<trkpt lat="48.214020" lon="6.378510">
						<ele>330</ele>
						<time>2025-03-24T18:31:08Z</time>
					</trkpt>
					<trkpt lat="48.213650" lon="6.378660">
						<ele>329</ele>
						<time>2025-03-24T18:31:15Z</time>
					</trkpt>
					<trkpt lat="48.213630" lon="6.378770">
						<ele>329</ele>
						<time>2025-03-24T18:31:16Z</time>
					</trkpt>
					<trkpt lat="48.213650" lon="6.379020">
						<ele>328</ele>
						<time>2025-03-24T18:31:19Z</time>
					</trkpt>
					<trkpt lat="48.213570" lon="6.379730">
						<ele>330</ele>
						<time>2025-03-24T18:31:28Z</time>
					</trkpt>
					<trkpt lat="48.213570" lon="6.379990">
						<ele>330</ele>
						<time>2025-03-24T18:31:31Z</time>
					</trkpt>
					<trkpt lat="48.213480" lon="6.380180">
						<ele>331</ele>
						<time>2025-03-24T18:31:33Z</time>
					</trkpt>
					<trkpt lat="48.213350" lon="6.380740">
						<ele>334</ele>
						<time>2025-03-24T18:31:41Z</time>
					</trkpt>
					<trkpt lat="48.213460" lon="6.380950">
						<ele>334</ele>
						<time>2025-03-24T18:31:44Z</time>
					</trkpt>
					<trkpt lat="48.213420" lon="6.381190">
						<ele>336</ele>
						<time>2025-03-24T18:31:47Z</time>
					</trkpt>
					<trkpt lat="48.213330" lon="6.382160">
						<ele>339</ele>
						<time>2025-03-24T18:31:58Z</time>
					</trkpt>
					<trkpt lat="48.213290" lon="6.382350">
						<ele>340</ele>
						<time>2025-03-24T18:32:01Z</time>
					</trkpt>
					<trkpt lat="48.213200" lon="6.382630">
						<ele>341</ele>
						<time>2025-03-24T18:32:04Z</time>
					</trkpt>
					<trkpt lat="48.212660" lon="6.383440">
						<ele>346</ele>
						<time>2025-03-24T18:32:18Z</time>
					</trkpt>
					<trkpt lat="48.212150" lon="6.384430">
						<ele>352</ele>
						<time>2025-03-24T18:32:33Z</time>
					</trkpt>
					<trkpt lat="48.212110" lon="6.384560">
						<ele>352</ele>
						<time>2025-03-24T18:32:34Z</time>
					</trkpt>
					<trkpt lat="48.212040" lon="6.385050">
						<ele>353</ele>
						<time>2025-03-24T18:32:40Z</time>
					</trkpt>
					<trkpt lat="48.211980" lon="6.385850">
						<ele>356</ele>
						<time>2025-03-24T18:32:50Z</time>
					</trkpt>
					<trkpt lat="48.211850" lon="6.386680">
						<ele>358</ele>
						<time>2025-03-24T18:33:00Z</time>
					</trkpt>
					<trkpt lat="48.211720" lon="6.387350">
						<ele>367</ele>
						<time>2025-03-24T18:33:08Z</time>
					</trkpt>
					<trkpt lat="48.211380" lon="6.388030">
						<ele>373</ele>
						<time>2025-03-24T18:33:18Z</time>
					</trkpt>
					<trkpt lat="48.211180" lon="6.388550">
						<ele>376</ele>
						<time>2025-03-24T18:33:25Z</time>
					</trkpt>
					<trkpt lat="48.210840" lon="6.390160">
						<ele>375</ele>
						<time>2025-03-24T18:33:45Z</time>
					</trkpt>
					<trkpt lat="48.210670" lon="6.390800">
						<ele>372</ele>
						<time>2025-03-24T18:33:54Z</time>
					</trkpt>
					<trkpt lat="48.209940" lon="6.392150">
						<ele>373</ele>
						<time>2025-03-24T18:34:14Z</time>
					</trkpt>
					<trkpt lat="48.209470" lon="6.393310">
						<ele>374</ele>
						<time>2025-03-24T18:34:30Z</time>
					</trkpt>
					<trkpt lat="48.209340" lon="6.394020">
						<ele>374</ele>
						<time>2025-03-24T18:34:39Z</time>
					</trkpt>
					<trkpt lat="48.209120" lon="6.396150">
						<ele>376</ele>
						<time>2025-03-24T18:35:05Z</time>
					</trkpt>
					<trkpt lat="48.208950" lon="6.396960">
						<ele>376</ele>
						<time>2025-03-24T18:35:15Z</time>
					</trkpt>
					<trkpt lat="48.207880" lon="6.399190">
						<ele>371</ele>
						<time>2025-03-24T18:35:47Z</time>
					</trkpt>
					<trkpt lat="48.207450" lon="6.400310">
						<ele>369</ele>
						<time>2025-03-24T18:36:03Z</time>
					</trkpt>
					<trkpt lat="48.206960" lon="6.401450">
						<ele>372</ele>
						<time>2025-03-24T18:36:19Z</time>
					</trkpt>
					<trkpt lat="48.205450" lon="6.404340">
						<ele>372</ele>
						<time>2025-03-24T18:37:02Z</time>
					</trkpt>
					<trkpt lat="48.205200" lon="6.404790">
						<ele>371</ele>
						<time>2025-03-24T18:37:09Z</time>
					</trkpt>
					<trkpt lat="48.205000" lon="6.405030">
						<ele>371</ele>
						<time>2025-03-24T18:37:14Z</time>
					</trkpt>
					<trkpt lat="48.204770" lon="6.405220">
						<ele>370</ele>
						<time>2025-03-24T18:37:18Z</time>
					</trkpt>
					<trkpt lat="48.204620" lon="6.405310">
						<ele>370</ele>
						<time>2025-03-24T18:37:21Z</time>
					</trkpt>
					<trkpt lat="48.203030" lon="6.405610">
						<ele>368</ele>
						<time>2025-03-24T18:37:50Z</time>
					</trkpt>
					<trkpt lat="48.201460" lon="6.406530">
						<ele>371</ele>
						<time>2025-03-24T18:38:20Z</time>
					</trkpt>
					<trkpt lat="48.200910" lon="6.406900">
						<ele>375</ele>
						<time>2025-03-24T18:38:31Z</time>
					</trkpt>
					<trkpt lat="48.200180" lon="6.407930">
						<ele>376</ele>
						<time>2025-03-24T18:38:48Z</time>
					</trkpt>
					<trkpt lat="48.198540" lon="6.410500">
						<ele>367</ele>
						<time>2025-03-24T18:39:31Z</time>
					</trkpt>
					<trkpt lat="48.198030" lon="6.411020">
						<ele>366</ele>
						<time>2025-03-24T18:39:42Z</time>
					</trkpt>
					<trkpt lat="48.197880" lon="6.411320">
						<ele>365</ele>
						<time>2025-03-24T18:39:46Z</time>
					</trkpt>
					<trkpt lat="48.197880" lon="6.411530">
						<ele>363</ele>
						<time>2025-03-24T18:39:48Z</time>
					</trkpt>
					<trkpt lat="48.197790" lon="6.411680">
						<ele>363</ele>
						<time>2025-03-24T18:39:51Z</time>
					</trkpt>
					<trkpt lat="48.197640" lon="6.411680">
						<ele>364</ele>
						<time>2025-03-24T18:39:54Z</time>
					</trkpt>
					<trkpt lat="48.197470" lon="6.411870">
						<ele>363</ele>
						<time>2025-03-24T18:39:57Z</time>
					</trkpt>
					<trkpt lat="48.197410" lon="6.412130">
						<ele>361</ele>
						<time>2025-03-24T18:40:01Z</time>
					</trkpt>
					<trkpt lat="48.197470" lon="6.412670">
						<ele>358</ele>
						<time>2025-03-24T18:40:07Z</time>
					</trkpt>
					<trkpt lat="48.197450" lon="6.413120">
						<ele>356</ele>
						<time>2025-03-24T18:40:12Z</time>
					</trkpt>
					<trkpt lat="48.197390" lon="6.413530">
						<ele>354</ele>
						<time>2025-03-24T18:40:17Z</time>
					</trkpt>
					<trkpt lat="48.197170" lon="6.414260">
						<ele>351</ele>
						<time>2025-03-24T18:40:27Z</time>
					</trkpt>
					<trkpt lat="48.196980" lon="6.414730">
						<ele>352</ele>
						<time>2025-03-24T18:40:33Z</time>
					</trkpt>
					<trkpt lat="48.196790" lon="6.415050">
						<ele>353</ele>
						<time>2025-03-24T18:40:39Z</time>
					</trkpt>
					<trkpt lat="48.196270" lon="6.415820">
						<ele>355</ele>
						<time>2025-03-24T18:40:52Z</time>
					</trkpt>
					<trkpt lat="48.196100" lon="6.416190">
						<ele>356</ele>
						<time>2025-03-24T18:40:57Z</time>
					</trkpt>
					<trkpt lat="48.195950" lon="6.416640">
						<ele>356</ele>
						<time>2025-03-24T18:41:03Z</time>
					</trkpt>
					<trkpt lat="48.196010" lon="6.416790">
						<ele>355</ele>
						<time>2025-03-24T18:41:05Z</time>
					</trkpt>
					<trkpt lat="48.195970" lon="6.416960">
						<ele>354</ele>
						<time>2025-03-24T18:41:07Z</time>
					</trkpt>
					<trkpt lat="48.195910" lon="6.417000">
						<ele>354</ele>
						<time>2025-03-24T18:41:08Z</time>
					</trkpt>
					<trkpt lat="48.195820" lon="6.416980">
						<ele>354</ele>
						<time>2025-03-24T18:41:10Z</time>
					</trkpt>
					<trkpt lat="48.195690" lon="6.417320">
						<ele>352</ele>
						<time>2025-03-24T18:41:14Z</time>
					</trkpt>
					<trkpt lat="48.195430" lon="6.417750">
						<ele>350</ele>
						<time>2025-03-24T18:41:21Z</time>
					</trkpt>
					<trkpt lat="48.194900" lon="6.418290">
						<ele>347</ele>
						<time>2025-03-24T18:41:33Z</time>
					</trkpt>
					<trkpt lat="48.194660" lon="6.418590">
						<ele>345</ele>
						<time>2025-03-24T18:41:38Z</time>
					</trkpt>
					<trkpt lat="48.194530" lon="6.418850">
						<ele>344</ele>
						<time>2025-03-24T18:41:42Z</time>
					</trkpt>
					<trkpt lat="48.194450" lon="6.419060">
						<ele>343</ele>
						<time>2025-03-24T18:41:45Z</time>
					</trkpt>
					<trkpt lat="48.193590" lon="6.421980">
						<ele>351</ele>
						<time>2025-03-24T18:42:23Z</time>
					</trkpt>
					<trkpt lat="48.193500" lon="6.422350">
						<ele>352</ele>
						<time>2025-03-24T18:42:28Z</time>
					</trkpt>
					<trkpt lat="48.193520" lon="6.422390">
						<ele>352</ele>
						<time>2025-03-24T18:42:28Z</time>
					</trkpt>
					<trkpt lat="48.193500" lon="6.422560">
						<ele>352</ele>
						<time>2025-03-24T18:42:30Z</time>
					</trkpt>
					<trkpt lat="48.193440" lon="6.422600">
						<ele>352</ele>
						<time>2025-03-24T18:42:31Z</time>
					</trkpt>
					<trkpt lat="48.193350" lon="6.422600">
						<ele>353</ele>
						<time>2025-03-24T18:42:33Z</time>
					</trkpt>
					<trkpt lat="48.193050" lon="6.423440">
						<ele>351</ele>
						<time>2025-03-24T18:42:44Z</time>
					</trkpt>
					<trkpt lat="48.192620" lon="6.424320">
						<ele>346</ele>
						<time>2025-03-24T18:42:57Z</time>
					</trkpt>
					<trkpt lat="48.191210" lon="6.426530">
						<ele>345</ele>
						<time>2025-03-24T18:43:34Z</time>
					</trkpt>
					<trkpt lat="48.191160" lon="6.426700">
						<ele>345</ele>
						<time>2025-03-24T18:43:36Z</time>
					</trkpt>
					<trkpt lat="48.191030" lon="6.426850">
						<ele>345</ele>
						<time>2025-03-24T18:43:39Z</time>
					</trkpt>
					<trkpt lat="48.190880" lon="6.427430">
						<ele>346</ele>
						<time>2025-03-24T18:43:46Z</time>
					</trkpt>
					<trkpt lat="48.190840" lon="6.427520">
						<ele>346</ele>
						<time>2025-03-24T18:43:47Z</time>
					</trkpt>
					<trkpt lat="48.190930" lon="6.427670">
						<ele>345</ele>
						<time>2025-03-24T18:43:50Z</time>
					</trkpt>
					<trkpt lat="48.190880" lon="6.427860">
						<ele>345</ele>
						<time>2025-03-24T18:43:52Z</time>
					</trkpt>
					<trkpt lat="48.190840" lon="6.427920">
						<ele>345</ele>
						<time>2025-03-24T18:43:53Z</time>
					</trkpt>
					<trkpt lat="48.190760" lon="6.427920">
						<ele>346</ele>
						<time>2025-03-24T18:43:55Z</time>
					</trkpt>
					<trkpt lat="48.190650" lon="6.427820">
						<ele>346</ele>
						<time>2025-03-24T18:43:57Z</time>
					</trkpt>
					<trkpt lat="48.190650" lon="6.427770">
						<ele>346</ele>
						<time>2025-03-24T18:43:57Z</time>
					</trkpt>
					<trkpt lat="48.190540" lon="6.427840">
						<ele>346</ele>
						<time>2025-03-24T18:44:00Z</time>
					</trkpt>
					<trkpt lat="48.190130" lon="6.428740">
						<ele>345</ele>
						<time>2025-03-24T18:44:12Z</time>
					</trkpt>
					<trkpt lat="48.189810" lon="6.429230">
						<ele>344</ele>
						<time>2025-03-24T18:44:21Z</time>
					</trkpt>
					<trkpt lat="48.189830" lon="6.429280">
						<ele>344</ele>
						<time>2025-03-24T18:44:21Z</time>
					</trkpt>
					<trkpt lat="48.189810" lon="6.429380">
						<ele>344</ele>
						<time>2025-03-24T18:44:23Z</time>
					</trkpt>
					<trkpt lat="48.189730" lon="6.429380">
						<ele>344</ele>
						<time>2025-03-24T18:44:24Z</time>
					</trkpt>
					<trkpt lat="48.189640" lon="6.429560">
						<ele>343</ele>
						<time>2025-03-24T18:44:27Z</time>
					</trkpt>
					<trkpt lat="48.189430" lon="6.429880">
						<ele>343</ele>
						<time>2025-03-24T18:44:32Z</time>
					</trkpt>
					<trkpt lat="48.189000" lon="6.430690">
						<ele>340</ele>
						<time>2025-03-24T18:44:44Z</time>
					</trkpt>
					<trkpt lat="48.188740" lon="6.432110">
						<ele>334</ele>
						<time>2025-03-24T18:45:02Z</time>
					</trkpt>
					<trkpt lat="48.188590" lon="6.432710">
						<ele>332</ele>
						<time>2025-03-24T18:45:09Z</time>
					</trkpt>
					<trkpt lat="48.188440" lon="6.433180">
						<ele>331</ele>
						<time>2025-03-24T18:45:15Z</time>
					</trkpt>
					<trkpt lat="48.188330" lon="6.433460">
						<ele>330</ele>
						<time>2025-03-24T18:45:19Z</time>
					</trkpt>
					<trkpt lat="48.188310" lon="6.433480">
						<ele>330</ele>
						<time>2025-03-24T18:45:20Z</time>
					</trkpt>
					<trkpt lat="48.188180" lon="6.433870">
						<ele>331</ele>
						<time>2025-03-24T18:45:25Z</time>
					</trkpt>
					<trkpt lat="48.188160" lon="6.434020">
						<ele>331</ele>
						<time>2025-03-24T18:45:27Z</time>
					</trkpt>
					<trkpt lat="48.188200" lon="6.434250">
						<ele>331</ele>
						<time>2025-03-24T18:45:30Z</time>
					</trkpt>
					<trkpt lat="48.188460" lon="6.435260">
						<ele>332</ele>
						<time>2025-03-24T18:45:42Z</time>
					</trkpt>
					<trkpt lat="48.188490" lon="6.435220">
						<ele>332</ele>
						<time>2025-03-24T18:45:43Z</time>
					</trkpt>
					<trkpt lat="48.188460" lon="6.435260">
						<ele>332</ele>
						<time>2025-03-24T18:45:44Z</time>
					</trkpt>
					<trkpt lat="48.188480" lon="6.435350">
						<ele>332</ele>
						<time>2025-03-24T18:45:45Z</time>
					</trkpt>
					<trkpt lat="48.188520" lon="6.435820">
						<ele>334</ele>
						<time>2025-03-24T18:45:51Z</time>
					</trkpt>
					<trkpt lat="48.188500" lon="6.436190">
						<ele>335</ele>
						<time>2025-03-24T18:45:55Z</time>
					</trkpt>
					<trkpt lat="48.188420" lon="6.436810">
						<ele>337</ele>
						<time>2025-03-24T18:46:02Z</time>
					</trkpt>
					<trkpt lat="48.188420" lon="6.437130">
						<ele>337</ele>
						<time>2025-03-24T18:46:06Z</time>
					</trkpt>
					<trkpt lat="48.188350" lon="6.437300">
						<ele>337</ele>
						<time>2025-03-24T18:46:09Z</time>
					</trkpt>
					<trkpt lat="48.188310" lon="6.437600">
						<ele>337</ele>
						<time>2025-03-24T18:46:12Z</time>
					</trkpt>
					<trkpt lat="48.188310" lon="6.437840">
						<ele>336</ele>
						<time>2025-03-24T18:46:15Z</time>
					</trkpt>
					<trkpt lat="48.188350" lon="6.438290">
						<ele>335</ele>
						<time>2025-03-24T18:46:21Z</time>
					</trkpt>
					<trkpt lat="48.186230" lon="6.439960">
						<ele>335</ele>
						<time>2025-03-24T18:47:03Z</time>
					</trkpt>
					<trkpt lat="48.185260" lon="6.440430">
						<ele>332</ele>
						<time>2025-03-24T18:47:21Z</time>
					</trkpt>
					<trkpt lat="48.184770" lon="6.440650">
						<ele>331</ele>
						<time>2025-03-24T18:47:30Z</time>
					</trkpt>
					<trkpt lat="48.184550" lon="6.440780">
						<ele>331</ele>
						<time>2025-03-24T18:47:35Z</time>
					</trkpt>
					<trkpt lat="48.184190" lon="6.441140">
						<ele>329</ele>
						<time>2025-03-24T18:47:42Z</time>
					</trkpt>
					<trkpt lat="48.184040" lon="6.441440">
						<ele>326</ele>
						<time>2025-03-24T18:47:47Z</time>
					</trkpt>
					<trkpt lat="48.184060" lon="6.441440">
						<ele>326</ele>
						<time>2025-03-24T18:47:47Z</time>
					</trkpt>
					<trkpt lat="48.184080" lon="6.441610">
						<ele>325</ele>
						<time>2025-03-24T18:47:49Z</time>
					</trkpt>
					<trkpt lat="48.184060" lon="6.441680">
						<ele>324</ele>
						<time>2025-03-24T18:47:50Z</time>
					</trkpt>
					<trkpt lat="48.183890" lon="6.441790">
						<ele>323</ele>
						<time>2025-03-24T18:47:53Z</time>
					</trkpt>
					<trkpt lat="48.183830" lon="6.441740">
						<ele>324</ele>
						<time>2025-03-24T18:47:55Z</time>
					</trkpt>
					<trkpt lat="48.183570" lon="6.441830">
						<ele>323</ele>
						<time>2025-03-24T18:47:59Z</time>
					</trkpt>
					<trkpt lat="48.183310" lon="6.442150">
						<ele>321</ele>
						<time>2025-03-24T18:48:05Z</time>
					</trkpt>
					<trkpt lat="48.183310" lon="6.442260">
						<ele>320</ele>
						<time>2025-03-24T18:48:07Z</time>
					</trkpt>
					<trkpt lat="48.183400" lon="6.442640">
						<ele>319</ele>
						<time>2025-03-24T18:48:11Z</time>
					</trkpt>
					<trkpt lat="48.184300" lon="6.444600">
						<ele>319</ele>
						<time>2025-03-24T18:48:40Z</time>
					</trkpt>
					<trkpt lat="48.184320" lon="6.444660">
						<ele>319</ele>
						<time>2025-03-24T18:48:40Z</time>
					</trkpt>
					<trkpt lat="48.184400" lon="6.445280">
						<ele>319</ele>
						<time>2025-03-24T18:48:48Z</time>
					</trkpt>
					<trkpt lat="48.184450" lon="6.445460">
						<ele>320</ele>
						<time>2025-03-24T18:48:50Z</time>
					</trkpt>
					<trkpt lat="48.184510" lon="6.445520">
						<ele>320</ele>
						<time>2025-03-24T18:48:51Z</time>
					</trkpt>
					<trkpt lat="48.184510" lon="6.445670">
						<ele>320</ele>
						<time>2025-03-24T18:48:53Z</time>
					</trkpt>
					<trkpt lat="48.184450" lon="6.445730">
						<ele>320</ele>
						<time>2025-03-24T18:48:55Z</time>
					</trkpt>
					<trkpt lat="48.184360" lon="6.445710">
						<ele>320</ele>
						<time>2025-03-24T18:48:56Z</time>
					</trkpt>
					<trkpt lat="48.184100" lon="6.445820">
						<ele>320</ele>
						<time>2025-03-24T18:49:01Z</time>
					</trkpt>
					<trkpt lat="48.184000" lon="6.445820">
						<ele>320</ele>
						<time>2025-03-24T18:49:03Z</time>
					</trkpt>
					<trkpt lat="48.182860" lon="6.446160">
						<ele>322</ele>
						<time>2025-03-24T18:49:23Z</time>
					</trkpt>
					<trkpt lat="48.182430" lon="6.446420">
						<ele>322</ele>
						<time>2025-03-24T18:49:32Z</time>
					</trkpt>
					<trkpt lat="48.181790" lon="6.446890">
						<ele>324</ele>
						<time>2025-03-24T18:49:44Z</time>
					</trkpt>
					<trkpt lat="48.180740" lon="6.447710">
						<ele>324</ele>
						<time>2025-03-24T18:50:05Z</time>
					</trkpt>
					<trkpt lat="48.180350" lon="6.448090">
						<ele>323</ele>
						<time>2025-03-24T18:50:14Z</time>
					</trkpt>
					<trkpt lat="48.179210" lon="6.449470">
						<ele>330</ele>
						<time>2025-03-24T18:50:40Z</time>
					</trkpt>
					<trkpt lat="48.179020" lon="6.449640">
						<ele>331</ele>
						<time>2025-03-24T18:50:44Z</time>
					</trkpt>
					<trkpt lat="48.178310" lon="6.450180">
						<ele>330</ele>
						<time>2025-03-24T18:50:58Z</time>
					</trkpt>
					<trkpt lat="48.178140" lon="6.450260">
						<ele>331</ele>
						<time>2025-03-24T18:51:01Z</time>
					</trkpt>
					<trkpt lat="48.177670" lon="6.450260">
						<ele>329</ele>
						<time>2025-03-24T18:51:09Z</time>
					</trkpt>
					<trkpt lat="48.176790" lon="6.450200">
						<ele>325</ele>
						<time>2025-03-24T18:51:25Z</time>
					</trkpt>
					<trkpt lat="48.176680" lon="6.450180">
						<ele>324</ele>
						<time>2025-03-24T18:51:27Z</time>
					</trkpt>
					<trkpt lat="48.176600" lon="6.450270">
						<ele>325</ele>
						<time>2025-03-24T18:51:29Z</time>
					</trkpt>
					<trkpt lat="48.176490" lon="6.450750">
						<ele>326</ele>
						<time>2025-03-24T18:51:35Z</time>
					</trkpt>
					<trkpt lat="48.176360" lon="6.450940">
						<ele>327</ele>
						<time>2025-03-24T18:51:38Z</time>
					</trkpt>
					<trkpt lat="48.176280" lon="6.450960">
						<ele>327</ele>
						<time>2025-03-24T18:51:40Z</time>
					</trkpt>
					<trkpt lat="48.176210" lon="6.451040">
						<ele>327</ele>
						<time>2025-03-24T18:51:41Z</time>
					</trkpt>
					<trkpt lat="48.176180" lon="6.451120">
						<ele>327</ele>
						<time>2025-03-24T18:51:42Z</time>
					</trkpt>
					<trkpt lat="48.176160" lon="6.451180">
						<ele>328</ele>
						<time>2025-03-24T18:51:43Z</time>
					</trkpt>
					<trkpt lat="48.176110" lon="6.451320">
						<ele>328</ele>
						<time>2025-03-24T18:51:45Z</time>
					</trkpt>
					<trkpt lat="48.176090" lon="6.451470">
						<ele>329</ele>
						<time>2025-03-24T18:51:47Z</time>
					</trkpt>
					<trkpt lat="48.175780" lon="6.452630">
						<ele>330</ele>
						<time>2025-03-24T18:52:01Z</time>
					</trkpt>
					<trkpt lat="48.175770" lon="6.452790">
						<ele>331</ele>
						<time>2025-03-24T18:52:03Z</time>
					</trkpt>
					<trkpt lat="48.175720" lon="6.452840">
						<ele>331</ele>
						<time>2025-03-24T18:52:04Z</time>
					</trkpt>
					<trkpt lat="48.175700" lon="6.452910">
						<ele>331</ele>
						<time>2025-03-24T18:52:05Z</time>
					</trkpt>
					<trkpt lat="48.175760" lon="6.453000">
						<ele>331</ele>
						<time>2025-03-24T18:52:07Z</time>
					</trkpt>
					<trkpt lat="48.175800" lon="6.453160">
						<ele>331</ele>
						<time>2025-03-24T18:52:09Z</time>
					</trkpt>
					<trkpt lat="48.175890" lon="6.453350">
						<ele>332</ele>
						<time>2025-03-24T18:52:12Z</time>
					</trkpt>
					<trkpt lat="48.176310" lon="6.454000">
						<ele>338</ele>
						<time>2025-03-24T18:52:22Z</time>
					</trkpt>
					<trkpt lat="48.176510" lon="6.454400">
						<ele>339</ele>
						<time>2025-03-24T18:52:28Z</time>
					</trkpt>
					<trkpt lat="48.176550" lon="6.454530">
						<ele>339</ele>
						<time>2025-03-24T18:52:30Z</time>
					</trkpt>
					<trkpt lat="48.176810" lon="6.455110">
						<ele>341</ele>
						<time>2025-03-24T18:52:38Z</time>
					</trkpt>
					<trkpt lat="48.177090" lon="6.455610">
						<ele>346</ele>
						<time>2025-03-24T18:52:46Z</time>
					</trkpt>
					<trkpt lat="48.177340" lon="6.456270">
						<ele>345</ele>
						<time>2025-03-24T18:52:55Z</time>
					</trkpt>
					<trkpt lat="48.177410" lon="6.456530">
						<ele>343</ele>
						<time>2025-03-24T18:52:58Z</time>
					</trkpt>
					<trkpt lat="48.177250" lon="6.456680">
						<ele>346</ele>
						<time>2025-03-24T18:53:02Z</time>
					</trkpt>
					<trkpt lat="48.177220" lon="6.457160">
						<ele>348</ele>
						<time>2025-03-24T18:53:07Z</time>
					</trkpt>
					<trkpt lat="48.177270" lon="6.457350">
						<ele>348</ele>
						<time>2025-03-24T18:53:10Z</time>
					</trkpt>
					<trkpt lat="48.177260" lon="6.457760">
						<ele>350</ele>
						<time>2025-03-24T18:53:15Z</time>
					</trkpt>
					<trkpt lat="48.177620" lon="6.459770">
						<ele>361</ele>
						<time>2025-03-24T18:53:39Z</time>
					</trkpt>
					<trkpt lat="48.177880" lon="6.461380">
						<ele>372</ele>
						<time>2025-03-24T18:53:59Z</time>
					</trkpt>
					<trkpt lat="48.177860" lon="6.461630">
						<ele>375</ele>
						<time>2025-03-24T18:54:02Z</time>
					</trkpt>
					<trkpt lat="48.177710" lon="6.462170">
						<ele>375</ele>
						<time>2025-03-24T18:54:09Z</time>
					</trkpt>
					<trkpt lat="48.177190" lon="6.463010">
						<ele>369</ele>
						<time>2025-03-24T18:54:23Z</time>
					</trkpt>
					<trkpt lat="48.177000" lon="6.463610">
						<ele>363</ele>
						<time>2025-03-24T18:54:31Z</time>
					</trkpt>
					</trkseg>
				</trk>
			</gpx>